createdAt,value
2019-03-29T00:00:25.519Z,9.64
2019-03-29T00:01:25.455Z,9.64
2019-03-29T00:02:25.392Z,9.54
2019-03-29T00:03:25.339Z,9.57
2019-03-29T00:04:25.299Z,9.54
2019-03-29T00:05:25.374Z,9.46
2019-03-29T00:06:25.181Z,9.46
2019-03-29T00:07:38.508Z,9.39
2019-03-29T00:08:25.078Z,9.46
2019-03-29T00:09:25.026Z,9.32
2019-03-29T00:10:24.976Z,9.28
2019-03-29T00:11:24.945Z,9.21
2019-03-29T00:12:24.860Z,9.16
2019-03-29T00:13:24.813Z,9.10
2019-03-29T00:14:24.847Z,9.06
2019-03-29T00:15:24.713Z,9.05
2019-03-29T00:16:25.911Z,9.10
2019-03-29T00:17:24.611Z,9.02
2019-03-29T00:18:24.557Z,9.00
2019-03-29T00:19:24.506Z,9.03
2019-03-29T00:20:24.450Z,9.00
2019-03-29T00:21:24.414Z,8.93
2019-03-29T00:22:24.344Z,8.93
2019-03-29T00:23:24.290Z,8.84
2019-03-29T00:24:24.235Z,8.84
2019-03-29T00:25:24.181Z,8.87
2019-03-29T00:26:24.951Z,8.82
2019-03-29T00:27:24.077Z,8.77
2019-03-29T00:28:24.021Z,8.72
2019-03-29T00:29:23.980Z,8.73
2019-03-29T00:30:23.927Z,8.62
2019-03-29T00:31:23.890Z,8.73
2019-03-29T00:32:23.804Z,8.64
2019-03-29T00:33:24.025Z,8.62
2019-03-29T00:34:23.706Z,8.52
2019-03-29T00:35:23.658Z,8.45
2019-03-29T00:36:23.622Z,8.45
2019-03-29T00:37:23.549Z,8.45
2019-03-29T00:38:23.492Z,8.36
2019-03-29T00:39:23.440Z,8.29
2019-03-29T00:40:23.389Z,8.29
2019-03-29T00:41:23.371Z,8.30
2019-03-29T00:42:23.279Z,8.30
2019-03-29T00:43:23.230Z,8.30
2019-03-29T00:44:23.172Z,8.12
2019-03-29T00:45:23.121Z,8.09
2019-03-29T00:46:23.098Z,8.15
2019-03-29T00:47:23.017Z,8.13
2019-03-29T00:48:22.958Z,8.08
2019-03-29T00:49:22.906Z,8.04
2019-03-29T00:50:22.855Z,7.98
2019-03-29T00:51:22.824Z,7.98
2019-03-29T00:52:22.753Z,8.04
2019-03-29T00:53:22.698Z,8.01
2019-03-29T00:54:22.638Z,7.93
2019-03-29T00:55:22.587Z,7.91
2019-03-29T00:56:22.554Z,7.87
2019-03-29T00:57:22.481Z,7.80
2019-03-29T00:58:23.000Z,7.76
2019-03-29T00:59:22.377Z,7.75
2019-03-29T01:00:22.314Z,7.69
2019-03-29T01:01:22.290Z,7.69
2019-03-29T01:02:22.214Z,7.76
2019-03-29T01:03:22.175Z,7.72
2019-03-29T01:04:22.107Z,7.76
2019-03-29T01:05:22.048Z,7.66
2019-03-29T01:06:22.022Z,7.75
2019-03-29T01:07:21.946Z,7.53
2019-03-29T01:08:21.890Z,7.60
2019-03-29T01:09:21.839Z,7.62
2019-03-29T01:10:22.220Z,7.47
2019-03-29T01:11:21.753Z,7.47
2019-03-29T01:12:21.675Z,7.49
2019-03-29T01:13:21.613Z,7.44
2019-03-29T01:14:21.566Z,7.39
2019-03-29T01:15:21.511Z,7.47
2019-03-29T01:16:21.487Z,7.44
2019-03-29T01:17:21.405Z,7.39
2019-03-29T01:18:21.353Z,7.38
2019-03-29T01:19:21.301Z,7.39
2019-03-29T01:20:21.871Z,7.32
2019-03-29T01:21:21.214Z,7.34
2019-03-29T01:22:21.136Z,7.28
2019-03-29T01:23:21.077Z,7.25
2019-03-29T01:24:21.032Z,7.25
2019-03-29T01:25:20.985Z,7.23
2019-03-29T01:26:20.946Z,7.18
2019-03-29T01:27:20.865Z,7.14
2019-03-29T01:28:20.815Z,7.18
2019-03-29T01:29:20.760Z,7.10
2019-03-29T01:30:20.703Z,7.03
2019-03-29T01:31:20.675Z,7.07
2019-03-29T01:32:20.592Z,7.08
2019-03-29T01:33:20.549Z,7.00
2019-03-29T01:34:20.485Z,6.92
2019-03-29T01:35:20.437Z,6.91
2019-03-29T01:36:20.412Z,6.96
2019-03-29T01:37:20.329Z,6.88
2019-03-29T01:38:22.197Z,6.91
2019-03-29T01:39:20.208Z,6.77
2019-03-29T01:40:20.161Z,6.88
2019-03-29T01:41:20.110Z,6.77
2019-03-29T01:42:20.075Z,6.88
2019-03-29T01:43:20.002Z,6.78
2019-03-29T01:44:19.943Z,6.81
2019-03-29T01:45:20.043Z,6.77
2019-03-29T01:46:19.837Z,6.74
2019-03-29T01:47:19.907Z,6.66
2019-03-29T01:48:19.734Z,6.71
2019-03-29T01:49:19.675Z,6.65
2019-03-29T01:50:19.620Z,6.62
2019-03-29T01:51:19.564Z,6.70
2019-03-29T01:52:20.024Z,6.62
2019-03-29T01:53:19.456Z,6.62
2019-03-29T01:54:19.402Z,6.62
2019-03-29T01:55:19.344Z,6.55
2019-03-29T01:56:19.297Z,6.59
2019-03-29T01:57:19.260Z,6.62
2019-03-29T01:58:19.180Z,6.57
2019-03-29T01:59:19.129Z,6.59
2019-03-29T02:00:19.076Z,6.52
2019-03-29T02:01:19.012Z,6.49
2019-03-29T02:02:18.995Z,6.53
2019-03-29T02:03:18.908Z,6.42
2019-03-29T02:04:18.869Z,6.52
2019-03-29T02:05:18.798Z,6.44
2019-03-29T02:06:19.186Z,6.37
2019-03-29T02:07:18.715Z,6.39
2019-03-29T02:08:18.643Z,6.34
2019-03-29T02:09:18.583Z,6.29
2019-03-29T02:10:18.525Z,6.24
2019-03-29T02:11:18.477Z,6.29
2019-03-29T02:12:18.441Z,6.32
2019-03-29T02:13:18.362Z,6.29
2019-03-29T02:14:18.326Z,6.34
2019-03-29T02:15:18.251Z,6.29
2019-03-29T02:16:18.201Z,6.21
2019-03-29T02:17:18.168Z,6.21
2019-03-29T02:18:18.093Z,6.19
2019-03-29T02:19:18.037Z,6.18
2019-03-29T02:20:17.982Z,6.16
2019-03-29T02:21:17.928Z,6.22
2019-03-29T02:22:17.891Z,6.19
2019-03-29T02:23:17.812Z,6.22
2019-03-29T02:24:17.757Z,6.15
2019-03-29T02:25:17.705Z,6.21
2019-03-29T02:26:17.655Z,6.13
2019-03-29T02:27:17.620Z,6.16
2019-03-29T02:28:18.822Z,6.18
2019-03-29T02:29:17.483Z,6.11
2019-03-29T02:30:17.431Z,6.11
2019-03-29T02:31:17.384Z,6.15
2019-03-29T02:32:17.347Z,6.15
2019-03-29T02:33:17.262Z,6.11
2019-03-29T02:34:17.219Z,6.04
2019-03-29T02:35:17.164Z,6.03
2019-03-29T02:36:17.109Z,6.03
2019-03-29T02:37:17.075Z,6.07
2019-03-29T02:38:16.995Z,6.00
2019-03-29T02:39:16.938Z,5.94
2019-03-29T02:40:16.878Z,6.01
2019-03-29T02:41:18.976Z,5.95
2019-03-29T02:42:16.773Z,5.89
2019-03-29T02:43:16.740Z,5.92
2019-03-29T02:44:16.666Z,5.86
2019-03-29T02:45:16.605Z,5.90
2019-03-29T02:46:16.551Z,5.89
2019-03-29T02:47:16.494Z,5.87
2019-03-29T02:48:17.023Z,5.89
2019-03-29T02:49:16.388Z,5.86
2019-03-29T02:50:16.330Z,5.83
2019-03-29T02:51:16.283Z,5.80
2019-03-29T02:52:16.227Z,5.77
2019-03-29T02:53:16.191Z,5.74
2019-03-29T02:54:16.122Z,5.76
2019-03-29T02:55:16.068Z,5.69
2019-03-29T02:56:16.007Z,5.76
2019-03-29T02:57:16.056Z,5.72
2019-03-29T02:58:15.919Z,5.71
2019-03-29T02:59:15.834Z,5.69
2019-03-29T03:00:15.780Z,5.71
2019-03-29T03:01:15.723Z,5.69
2019-03-29T03:02:15.673Z,5.69
2019-03-29T03:03:15.638Z,5.64
2019-03-29T03:04:15.557Z,5.74
2019-03-29T03:05:15.504Z,5.53
2019-03-29T03:06:15.451Z,5.64
2019-03-29T03:07:15.395Z,5.69
2019-03-29T03:08:15.364Z,5.58
2019-03-29T03:09:15.290Z,5.57
2019-03-29T03:10:15.230Z,5.64
2019-03-29T03:11:15.186Z,5.59
2019-03-29T03:12:15.122Z,5.69
2019-03-29T03:13:15.087Z,5.64
2019-03-29T03:14:15.009Z,5.58
2019-03-29T03:15:14.952Z,5.62
2019-03-29T03:16:14.908Z,5.62
2019-03-29T03:17:14.841Z,5.58
2019-03-29T03:18:14.825Z,5.57
2019-03-29T03:19:14.735Z,5.53
2019-03-29T03:20:15.801Z,5.59
2019-03-29T03:21:14.624Z,5.54
2019-03-29T03:22:14.568Z,5.51
2019-03-29T03:23:14.538Z,5.49
2019-03-29T03:24:14.453Z,5.54
2019-03-29T03:25:14.411Z,5.53
2019-03-29T03:26:14.343Z,5.44
2019-03-29T03:27:14.296Z,5.43
2019-03-29T03:28:14.256Z,5.43
2019-03-29T03:29:14.176Z,5.47
2019-03-29T03:30:14.141Z,5.47
2019-03-29T03:31:14.103Z,5.44
2019-03-29T03:32:14.011Z,5.47
2019-03-29T03:33:13.999Z,5.42
2019-03-29T03:34:13.903Z,5.46
2019-03-29T03:35:13.854Z,5.47
2019-03-29T03:36:13.796Z,5.51
2019-03-29T03:37:13.739Z,5.54
2019-03-29T03:38:13.682Z,5.53
2019-03-29T03:39:30.639Z,5.44
2019-03-29T03:40:13.582Z,5.44
2019-03-29T03:41:13.523Z,5.47
2019-03-29T03:42:13.460Z,5.50
2019-03-29T03:43:13.409Z,5.43
2019-03-29T03:44:13.379Z,5.44
2019-03-29T03:45:13.299Z,5.46
2019-03-29T03:46:13.245Z,5.39
2019-03-29T03:47:13.224Z,5.33
2019-03-29T03:48:13.135Z,5.35
2019-03-29T03:49:13.096Z,5.36
2019-03-29T03:50:13.017Z,5.35
2019-03-29T03:51:12.963Z,5.42
2019-03-29T03:52:12.903Z,5.26
2019-03-29T03:53:12.854Z,5.28
2019-03-29T03:54:12.824Z,5.24
2019-03-29T03:55:12.739Z,5.39
2019-03-29T03:56:12.684Z,5.31
2019-03-29T03:57:12.625Z,5.29
2019-03-29T03:58:12.581Z,5.32
2019-03-29T03:59:12.544Z,5.26
2019-03-29T04:00:12.465Z,5.33
2019-03-29T04:01:12.438Z,5.36
2019-03-29T04:02:12.348Z,5.36
2019-03-29T04:03:12.301Z,5.31
2019-03-29T04:04:12.290Z,5.28
2019-03-29T04:05:12.186Z,5.25
2019-03-29T04:06:12.127Z,5.35
2019-03-29T04:07:12.080Z,5.26
2019-03-29T04:08:12.019Z,5.26
2019-03-29T04:09:11.984Z,5.24
2019-03-29T04:10:11.922Z,5.29
2019-03-29T04:11:11.865Z,5.14
2019-03-29T04:12:11.886Z,5.22
2019-03-29T04:13:11.738Z,5.25
2019-03-29T04:14:11.710Z,5.26
2019-03-29T04:15:11.633Z,5.28
2019-03-29T04:16:11.573Z,5.24
2019-03-29T04:17:11.648Z,5.19
2019-03-29T04:18:15.370Z,5.22
2019-03-29T04:19:11.433Z,5.22
2019-03-29T04:20:11.363Z,5.07
2019-03-29T04:21:18.935Z,5.16
2019-03-29T04:22:11.242Z,5.16
2019-03-29T04:23:11.185Z,5.13
2019-03-29T04:24:11.188Z,5.07
2019-03-29T04:25:11.075Z,5.16
2019-03-29T04:26:11.021Z,5.01
2019-03-29T04:27:10.970Z,5.14
2019-03-29T04:28:10.905Z,5.08
2019-03-29T04:29:10.873Z,5.03
2019-03-29T04:30:10.793Z,5.13
2019-03-29T04:31:10.742Z,5.16
2019-03-29T04:32:10.685Z,5.11
2019-03-29T04:33:11.380Z,5.11
2019-03-29T04:34:10.600Z,5.07
2019-03-29T04:35:10.524Z,5.10
2019-03-29T04:36:10.460Z,5.14
2019-03-29T04:37:10.408Z,5.16
2019-03-29T04:38:10.350Z,5.16
2019-03-29T04:39:10.318Z,5.11
2019-03-29T04:40:10.294Z,5.11
2019-03-29T04:41:10.184Z,5.11
2019-03-29T04:42:10.151Z,5.10
2019-03-29T04:43:10.072Z,5.03
2019-03-29T04:44:10.039Z,5.08
2019-03-29T04:45:09.964Z,5.04
2019-03-29T04:46:09.902Z,5.10
2019-03-29T04:47:09.848Z,5.07
2019-03-29T04:48:09.795Z,5.08
2019-03-29T04:49:09.767Z,5.08
2019-03-29T04:50:09.685Z,5.04
2019-03-29T04:51:09.628Z,5.03
2019-03-29T04:52:09.570Z,5.07
2019-03-29T04:53:09.514Z,5.04
2019-03-29T04:54:09.483Z,5.14
2019-03-29T04:55:09.403Z,4.98
2019-03-29T04:56:09.346Z,5.06
2019-03-29T04:57:09.288Z,5.07
2019-03-29T04:58:09.230Z,5.06
2019-03-29T04:59:09.205Z,5.04
2019-03-29T05:00:09.123Z,4.93
2019-03-29T05:01:09.090Z,4.92
2019-03-29T05:02:09.012Z,4.89
2019-03-29T05:03:08.964Z,4.85
2019-03-29T05:04:08.901Z,4.93
2019-03-29T05:05:08.874Z,4.86
2019-03-29T05:06:08.801Z,4.89
2019-03-29T05:07:08.734Z,4.90
2019-03-29T05:08:08.679Z,4.88
2019-03-29T05:09:08.624Z,4.89
2019-03-29T05:10:20.217Z,4.79
2019-03-29T05:11:08.518Z,4.83
2019-03-29T05:12:08.454Z,4.88
2019-03-29T05:13:08.402Z,4.80
2019-03-29T05:14:08.343Z,4.85
2019-03-29T05:15:08.311Z,4.83
2019-03-29T05:16:08.235Z,4.83
2019-03-29T05:17:08.166Z,4.83
2019-03-29T05:18:08.119Z,4.79
2019-03-29T05:19:08.066Z,4.77
2019-03-29T05:20:08.032Z,4.79
2019-03-29T05:21:07.952Z,4.83
2019-03-29T05:22:07.895Z,4.85
2019-03-29T05:23:07.841Z,4.85
2019-03-29T05:24:07.785Z,4.85
2019-03-29T05:25:07.754Z,4.80
2019-03-29T05:26:07.676Z,4.80
2019-03-29T05:27:07.620Z,4.80
2019-03-29T05:28:07.563Z,4.83
2019-03-29T05:29:07.508Z,4.83
2019-03-29T05:30:07.470Z,4.85
2019-03-29T05:31:07.398Z,4.86
2019-03-29T05:32:07.337Z,4.96
2019-03-29T05:33:07.282Z,4.86
2019-03-29T05:34:07.223Z,4.86
2019-03-29T05:35:07.204Z,4.88
2019-03-29T05:36:07.118Z,4.90
2019-03-29T05:37:07.065Z,4.95
2019-03-29T05:38:07.010Z,4.99
2019-03-29T05:39:06.950Z,5.06
2019-03-29T05:40:06.919Z,5.08
2019-03-29T05:41:06.839Z,5.04
2019-03-29T05:42:06.780Z,5.04
2019-03-29T05:43:06.736Z,5.08
2019-03-29T05:44:06.682Z,5.08
2019-03-29T05:45:06.656Z,5.08
2019-03-29T05:46:06.562Z,5.04
2019-03-29T05:47:06.503Z,5.04
2019-03-29T05:48:06.443Z,5.10
2019-03-29T05:49:06.391Z,5.14
2019-03-29T05:50:06.361Z,5.08
2019-03-29T05:51:06.283Z,5.04
2019-03-29T05:52:06.225Z,5.16
2019-03-29T05:53:06.170Z,5.22
2019-03-29T05:54:06.116Z,5.29
2019-03-29T05:55:06.137Z,5.28
2019-03-29T05:56:06.004Z,5.31
2019-03-29T05:57:05.951Z,5.31
2019-03-29T05:58:05.895Z,5.31
2019-03-29T05:59:05.838Z,5.32
2019-03-29T06:00:05.803Z,5.39
2019-03-29T06:01:05.801Z,5.36
2019-03-29T06:02:05.668Z,5.36
2019-03-29T06:03:05.612Z,5.46
2019-03-29T06:04:05.557Z,5.43
2019-03-29T06:05:05.529Z,5.35
2019-03-29T06:06:05.447Z,5.47
2019-03-29T06:07:05.394Z,5.43
2019-03-29T06:08:05.331Z,5.50
2019-03-29T06:09:05.280Z,5.50
2019-03-29T06:10:05.249Z,5.64
2019-03-29T06:11:05.166Z,5.76
2019-03-29T06:12:05.113Z,5.74
2019-03-29T06:13:05.058Z,5.83
2019-03-29T06:14:05.006Z,5.76
2019-03-29T06:15:04.972Z,5.85
2019-03-29T06:16:06.258Z,6.00
2019-03-29T06:17:04.837Z,6.04
2019-03-29T06:18:04.782Z,6.07
2019-03-29T06:19:04.726Z,6.18
2019-03-29T06:20:04.715Z,6.26
2019-03-29T06:21:04.617Z,6.37
2019-03-29T06:22:04.562Z,6.49
2019-03-29T06:23:04.508Z,6.47
2019-03-29T06:24:04.453Z,6.60
2019-03-29T06:25:04.398Z,6.73
2019-03-29T06:26:04.371Z,6.80
2019-03-29T06:27:04.286Z,7.00
2019-03-29T06:28:04.240Z,7.20
2019-03-29T06:29:04.181Z,7.25
2019-03-29T06:30:04.125Z,7.44
2019-03-29T06:31:04.098Z,7.49
2019-03-29T06:32:04.020Z,7.66
2019-03-29T06:33:03.954Z,7.78
2019-03-29T06:34:03.909Z,7.83
2019-03-29T06:35:03.852Z,7.90
2019-03-29T06:36:03.824Z,8.05
2019-03-29T06:37:03.750Z,8.18
2019-03-29T06:38:03.691Z,8.30
2019-03-29T06:39:03.635Z,8.38
2019-03-29T06:40:03.578Z,8.44
2019-03-29T06:41:03.785Z,8.59
2019-03-29T06:42:03.473Z,8.75
2019-03-29T06:43:03.421Z,8.85
2019-03-29T06:44:03.365Z,8.99
2019-03-29T06:45:03.310Z,9.02
2019-03-29T06:46:03.288Z,9.10
2019-03-29T06:47:03.207Z,9.36
2019-03-29T06:48:03.156Z,9.39
2019-03-29T06:49:03.106Z,9.44
2019-03-29T06:50:03.048Z,9.61
2019-03-29T06:51:03.018Z,9.69
2019-03-29T06:52:02.950Z,9.82
2019-03-29T06:53:02.883Z,9.86
2019-03-29T06:54:02.834Z,9.88
2019-03-29T06:55:02.790Z,10.01
2019-03-29T06:56:02.749Z,10.09
2019-03-29T06:57:02.681Z,10.20
2019-03-29T06:58:02.626Z,10.23
2019-03-29T06:59:02.574Z,10.37
2019-03-29T07:00:02.515Z,10.46
2019-03-29T07:01:02.491Z,10.64
2019-03-29T07:02:02.418Z,10.65
2019-03-29T07:03:02.365Z,10.67
2019-03-29T07:04:02.309Z,10.68
2019-03-29T07:05:02.258Z,10.85
2019-03-29T07:06:02.230Z,10.87
2019-03-29T07:07:02.157Z,10.96
2019-03-29T07:08:02.105Z,11.00
2019-03-29T07:09:02.052Z,11.07
2019-03-29T07:10:01.999Z,11.04
2019-03-29T07:11:16.181Z,11.10
2019-03-29T07:12:01.899Z,11.19
2019-03-29T07:13:01.847Z,11.17
2019-03-29T07:14:01.796Z,11.17
2019-03-29T07:15:01.745Z,11.30
2019-03-29T07:16:01.712Z,11.28
2019-03-29T07:17:01.638Z,11.29
2019-03-29T07:18:01.585Z,11.19
2019-03-29T07:19:04.846Z,11.25
2019-03-29T07:20:01.560Z,11.10
2019-03-29T07:21:01.460Z,11.10
2019-03-29T07:22:01.380Z,11.17
2019-03-29T07:23:01.330Z,11.12
2019-03-29T07:24:01.278Z,11.26
2019-03-29T07:25:01.228Z,11.22
2019-03-29T07:26:01.202Z,11.35
2019-03-29T07:27:01.123Z,11.44
2019-03-29T07:28:01.070Z,11.51
2019-03-29T07:29:01.022Z,11.48
2019-03-29T07:30:00.973Z,11.65
2019-03-29T07:31:00.946Z,11.61
2019-03-29T07:32:00.871Z,11.63
2019-03-29T07:33:00.819Z,11.68
2019-03-29T07:34:00.774Z,11.72
2019-03-29T07:35:00.717Z,11.80
2019-03-29T07:36:00.713Z,11.80
2019-03-29T07:37:00.619Z,11.87
2019-03-29T07:38:00.562Z,11.96
2019-03-29T07:39:00.511Z,11.95
2019-03-29T07:40:00.462Z,11.87
2019-03-29T07:41:00.413Z,11.97
2019-03-29T07:42:00.385Z,12.07
2019-03-29T07:43:00.310Z,11.97
2019-03-29T07:44:00.260Z,11.87
2019-03-29T07:45:00.354Z,11.74
2019-03-29T07:46:00.151Z,11.63
2019-03-29T07:47:00.132Z,11.68
2019-03-29T07:48:00.062Z,11.62
2019-03-29T07:49:00.005Z,11.54
2019-03-29T07:49:59.953Z,11.61
2019-03-29T07:50:59.984Z,11.66
2019-03-29T07:51:59.875Z,11.80
2019-03-29T07:52:59.801Z,11.77
2019-03-29T07:53:59.750Z,11.76
2019-03-29T07:54:59.701Z,11.84
2019-03-29T07:55:59.649Z,12.00
2019-03-29T07:56:59.622Z,12.07
2019-03-29T07:57:59.547Z,12.05
2019-03-29T07:58:59.495Z,12.13
2019-03-29T07:59:59.443Z,12.15
2019-03-29T08:00:59.409Z,12.21
2019-03-29T08:01:59.368Z,12.05
2019-03-29T08:02:59.291Z,12.09
2019-03-29T08:03:59.250Z,12.10
2019-03-29T08:04:59.190Z,12.13
2019-03-29T08:05:59.170Z,12.18
2019-03-29T08:06:59.116Z,12.24
2019-03-29T08:07:59.903Z,12.27
2019-03-29T08:08:58.988Z,12.28
2019-03-29T08:09:58.937Z,12.28
2019-03-29T08:10:59.271Z,12.22
2019-03-29T08:11:58.859Z,12.13
2019-03-29T08:12:58.788Z,12.21
2019-03-29T08:13:58.737Z,12.14
2019-03-29T08:14:58.685Z,12.09
2019-03-29T08:15:58.638Z,12.07
2019-03-29T08:16:58.609Z,12.18
2019-03-29T08:18:01.396Z,12.25
2019-03-29T08:18:58.484Z,12.25
2019-03-29T08:20:35.923Z,12.24
2019-03-29T08:20:58.381Z,12.22
2019-03-29T08:21:58.349Z,12.24
2019-03-29T08:22:58.281Z,12.32
2019-03-29T08:23:58.230Z,12.36
2019-03-29T08:24:59.377Z,12.43
2019-03-29T08:25:58.131Z,12.38
2019-03-29T08:26:58.155Z,12.40
2019-03-29T08:27:58.030Z,12.39
2019-03-29T08:28:57.977Z,12.39
2019-03-29T08:29:57.926Z,12.38
2019-03-29T08:30:57.878Z,12.39
2019-03-29T08:31:57.850Z,12.55
2019-03-29T08:32:57.776Z,12.45
2019-03-29T08:33:57.727Z,12.63
2019-03-29T08:34:57.697Z,12.58
2019-03-29T08:35:57.625Z,12.65
2019-03-29T08:36:57.598Z,12.69
2019-03-29T08:37:57.526Z,12.60
2019-03-29T08:38:57.483Z,12.58
2019-03-29T08:39:57.424Z,12.63
2019-03-29T08:40:57.373Z,12.68
2019-03-29T08:42:00.327Z,12.61
2019-03-29T08:42:57.275Z,12.57
2019-03-29T08:43:57.222Z,12.55
2019-03-29T08:44:57.170Z,12.54
2019-03-29T08:45:57.777Z,12.64
2019-03-29T08:46:57.127Z,12.53
2019-03-29T08:47:57.021Z,12.63
2019-03-29T08:48:56.973Z,12.54
2019-03-29T08:49:56.921Z,12.61
2019-03-29T08:50:56.874Z,12.63
2019-03-29T08:51:56.848Z,12.68
2019-03-29T08:52:56.772Z,12.63
2019-03-29T08:53:56.720Z,12.61
2019-03-29T08:54:56.669Z,12.76
2019-03-29T08:55:56.619Z,12.85
2019-03-29T08:56:56.571Z,12.93
2019-03-29T08:57:56.541Z,12.97
2019-03-29T08:58:56.471Z,12.96
2019-03-29T08:59:56.416Z,12.93
2019-03-29T09:00:56.367Z,12.79
2019-03-29T09:01:56.320Z,12.78
2019-03-29T09:02:56.298Z,12.75
2019-03-29T09:04:05.288Z,12.93
2019-03-29T09:04:56.166Z,12.90
2019-03-29T09:05:56.120Z,12.93
2019-03-29T09:06:56.064Z,12.91
2019-03-29T09:07:56.033Z,13.09
2019-03-29T09:08:55.971Z,13.12
2019-03-29T09:09:55.914Z,13.22
2019-03-29T09:10:55.866Z,13.18
2019-03-29T09:11:55.813Z,13.18
2019-03-29T09:12:55.791Z,13.19
2019-03-29T09:13:55.715Z,13.13
2019-03-29T09:14:55.665Z,13.19
2019-03-29T09:15:55.613Z,13.24
2019-03-29T09:16:55.559Z,13.26
2019-03-29T09:17:55.539Z,13.33
2019-03-29T09:18:55.467Z,13.30
2019-03-29T09:19:55.428Z,13.21
2019-03-29T09:20:55.361Z,13.12
2019-03-29T09:21:55.313Z,13.21
2019-03-29T09:22:55.290Z,13.33
2019-03-29T09:23:55.213Z,13.30
2019-03-29T09:24:55.160Z,13.33
2019-03-29T09:25:55.111Z,13.53
2019-03-29T09:26:55.064Z,13.43
2019-03-29T09:27:55.029Z,13.50
2019-03-29T09:28:54.958Z,13.49
2019-03-29T09:29:54.903Z,13.46
2019-03-29T09:30:56.488Z,13.47
2019-03-29T09:31:54.812Z,13.41
2019-03-29T09:32:54.786Z,13.55
2019-03-29T09:33:58.139Z,13.49
2019-03-29T09:34:54.658Z,13.53
2019-03-29T09:35:54.611Z,13.52
2019-03-29T09:36:54.563Z,13.53
2019-03-29T09:37:56.500Z,13.56
2019-03-29T09:38:54.460Z,13.60
2019-03-29T09:39:54.412Z,13.68
2019-03-29T09:40:58.727Z,13.65
2019-03-29T09:41:54.309Z,13.74
2019-03-29T09:43:06.714Z,13.65
2019-03-29T09:43:54.738Z,13.67
2019-03-29T09:44:54.158Z,13.70
2019-03-29T09:45:54.113Z,13.67
2019-03-29T09:46:54.065Z,13.57
2019-03-29T09:47:55.929Z,13.72
2019-03-29T09:48:53.962Z,13.71
2019-03-29T09:49:53.910Z,13.78
2019-03-29T09:50:53.863Z,13.80
2019-03-29T09:51:53.813Z,14.00
2019-03-29T09:52:53.784Z,13.90
2019-03-29T09:53:53.708Z,13.97
2019-03-29T09:54:54.169Z,14.03
2019-03-29T09:55:53.681Z,14.00
2019-03-29T09:56:53.562Z,14.03
2019-03-29T09:57:53.538Z,13.96
2019-03-29T09:58:53.455Z,14.01
2019-03-29T09:59:53.414Z,14.00
2019-03-29T10:00:54.107Z,14.00
2019-03-29T10:01:54.234Z,13.93
2019-03-29T10:02:53.443Z,14.01
2019-03-29T10:03:53.213Z,14.08
2019-03-29T10:04:53.164Z,14.08
2019-03-29T10:05:53.112Z,13.95
2019-03-29T10:06:53.061Z,13.95
2019-03-29T10:07:53.038Z,14.04
2019-03-29T10:08:53.488Z,14.10
2019-03-29T10:09:52.916Z,14.15
2019-03-29T10:10:52.868Z,14.18
2019-03-29T10:11:52.817Z,14.18
2019-03-29T10:12:52.793Z,14.15
2019-03-29T10:13:52.735Z,14.13
2019-03-29T10:14:52.666Z,14.20
2019-03-29T10:15:52.618Z,14.10
2019-03-29T10:16:52.570Z,14.18
2019-03-29T10:17:52.542Z,14.15
2019-03-29T10:18:52.473Z,14.05
2019-03-29T10:19:52.421Z,14.03
2019-03-29T10:20:52.369Z,14.15
2019-03-29T10:21:52.346Z,14.18
2019-03-29T10:22:52.267Z,14.43
2019-03-29T10:23:52.251Z,14.41
2019-03-29T10:24:52.175Z,14.36
2019-03-29T10:25:52.120Z,14.48
2019-03-29T10:26:52.066Z,14.43
2019-03-29T10:27:52.019Z,14.45
2019-03-29T10:28:51.995Z,14.53
2019-03-29T10:29:51.921Z,14.55
2019-03-29T10:30:51.867Z,14.51
2019-03-29T10:31:52.077Z,14.43
2019-03-29T10:32:51.769Z,14.45
2019-03-29T10:33:51.746Z,14.38
2019-03-29T10:34:51.671Z,14.45
2019-03-29T10:35:52.987Z,14.44
2019-03-29T10:36:51.571Z,14.44
2019-03-29T10:37:51.528Z,14.41
2019-03-29T10:38:51.497Z,14.37
2019-03-29T10:39:51.417Z,14.50
2019-03-29T10:40:51.373Z,14.41
2019-03-29T10:41:51.323Z,14.41
2019-03-29T10:42:57.785Z,14.38
2019-03-29T10:43:51.248Z,14.41
2019-03-29T10:44:51.179Z,14.48
2019-03-29T10:45:51.120Z,14.48
2019-03-29T10:46:51.076Z,14.47
2019-03-29T10:47:51.025Z,14.50
2019-03-29T10:48:51.001Z,14.45
2019-03-29T10:49:50.929Z,14.55
2019-03-29T10:50:50.875Z,14.55
2019-03-29T10:51:50.825Z,14.63
2019-03-29T10:52:50.777Z,14.55
2019-03-29T10:53:50.752Z,14.48
2019-03-29T10:54:50.679Z,14.48
2019-03-29T10:55:50.626Z,14.59
2019-03-29T10:56:50.584Z,14.58
2019-03-29T10:57:50.528Z,14.55
2019-03-29T10:58:50.506Z,14.53
2019-03-29T10:59:50.426Z,14.50
2019-03-29T11:00:50.381Z,14.50
2019-03-29T11:01:50.330Z,14.45
2019-03-29T11:02:50.287Z,14.50
2019-03-29T11:03:50.256Z,14.47
2019-03-29T11:04:50.184Z,14.55
2019-03-29T11:05:50.128Z,14.55
2019-03-29T11:06:50.083Z,14.51
2019-03-29T11:07:50.030Z,14.65
2019-03-29T11:08:50.008Z,14.70
2019-03-29T11:09:49.939Z,14.81
2019-03-29T11:10:49.888Z,14.68
2019-03-29T11:11:49.832Z,14.62
2019-03-29T11:12:49.784Z,14.65
2019-03-29T11:13:49.753Z,14.66
2019-03-29T11:14:49.688Z,14.70
2019-03-29T11:15:49.635Z,14.87
2019-03-29T11:16:49.583Z,14.79
2019-03-29T11:17:49.536Z,14.84
2019-03-29T11:18:49.519Z,14.95
2019-03-29T11:19:49.434Z,15.03
2019-03-29T11:20:49.390Z,15.07
2019-03-29T11:21:49.339Z,15.21
2019-03-29T11:22:49.287Z,15.17
2019-03-29T11:23:49.260Z,15.25
2019-03-29T11:24:49.188Z,15.30
2019-03-29T11:25:49.173Z,15.36
2019-03-29T11:26:49.089Z,15.33
2019-03-29T11:27:49.039Z,15.35
2019-03-29T11:28:49.014Z,15.32
2019-03-29T11:29:48.941Z,15.30
2019-03-29T11:30:48.891Z,15.28
2019-03-29T11:31:48.844Z,15.32
2019-03-29T11:32:48.794Z,15.30
2019-03-29T11:33:48.768Z,15.36
2019-03-29T11:34:48.694Z,15.35
2019-03-29T11:35:48.643Z,15.28
2019-03-29T11:36:48.591Z,15.32
2019-03-29T11:37:48.543Z,15.35
2019-03-29T11:38:48.517Z,15.30
2019-03-29T11:39:48.449Z,15.35
2019-03-29T11:40:48.396Z,15.32
2019-03-29T11:41:48.342Z,15.36
2019-03-29T11:42:48.295Z,15.32
2019-03-29T11:43:48.272Z,15.22
2019-03-29T11:44:48.192Z,15.21
2019-03-29T11:45:48.143Z,15.22
2019-03-29T11:46:48.096Z,15.18
2019-03-29T11:47:48.046Z,15.18
2019-03-29T11:48:48.020Z,15.19
2019-03-29T11:49:47.978Z,15.24
2019-03-29T11:50:47.896Z,15.21
2019-03-29T11:51:47.849Z,15.12
2019-03-29T11:52:47.797Z,15.21
2019-03-29T11:53:50.843Z,15.19
2019-03-29T11:54:47.723Z,15.19
2019-03-29T11:55:47.647Z,15.15
2019-03-29T11:56:47.878Z,15.18
2019-03-29T11:57:47.548Z,15.24
2019-03-29T11:58:47.500Z,15.25
2019-03-29T11:59:47.478Z,15.14
2019-03-29T12:00:47.403Z,15.22
2019-03-29T12:01:47.354Z,15.21
2019-03-29T12:02:47.303Z,15.32
2019-03-29T12:03:47.259Z,15.43
2019-03-29T12:04:47.246Z,15.44
2019-03-29T12:05:47.150Z,15.48
2019-03-29T12:06:47.106Z,15.44
2019-03-29T12:07:47.058Z,15.44
2019-03-29T12:08:47.007Z,15.54
2019-03-29T12:09:46.982Z,15.52
2019-03-29T12:10:46.909Z,15.54
2019-03-29T12:11:46.865Z,15.50
2019-03-29T12:12:46.810Z,15.44
2019-03-29T12:13:46.769Z,15.42
2019-03-29T12:14:46.734Z,15.54
2019-03-29T12:15:46.663Z,15.51
2019-03-29T12:16:46.616Z,15.50
2019-03-29T12:17:46.560Z,15.58
2019-03-29T12:18:46.514Z,15.61
2019-03-29T12:19:46.492Z,15.60
2019-03-29T12:20:46.414Z,15.58
2019-03-29T12:21:46.368Z,15.68
2019-03-29T12:22:46.319Z,15.60
2019-03-29T12:23:46.268Z,15.72
2019-03-29T12:24:46.252Z,15.64
2019-03-29T12:25:46.169Z,15.75
2019-03-29T12:26:46.122Z,15.73
2019-03-29T12:27:46.075Z,15.70
2019-03-29T12:28:46.024Z,15.76
2019-03-29T12:29:45.995Z,15.64
2019-03-29T12:30:45.925Z,15.69
2019-03-29T12:31:45.873Z,15.60
2019-03-29T12:32:45.825Z,15.64
2019-03-29T12:33:45.774Z,15.76
2019-03-29T12:34:45.754Z,15.85
2019-03-29T12:35:45.676Z,15.94
2019-03-29T12:36:46.224Z,15.91
2019-03-29T12:37:45.581Z,15.85
2019-03-29T12:38:45.531Z,15.95
2019-03-29T12:39:45.505Z,15.95
2019-03-29T12:40:45.463Z,15.94
2019-03-29T12:41:45.382Z,16.05
2019-03-29T12:42:45.331Z,16.02
2019-03-29T12:43:55.542Z,15.98
2019-03-29T12:44:45.261Z,15.92
2019-03-29T12:45:45.186Z,15.90
2019-03-29T12:46:45.135Z,15.90
2019-03-29T12:47:45.087Z,15.80
2019-03-29T12:48:45.035Z,15.87
2019-03-29T12:49:45.013Z,15.82
2019-03-29T12:50:44.943Z,15.80
2019-03-29T12:51:46.573Z,15.83
2019-03-29T12:52:44.841Z,15.76
2019-03-29T12:53:44.796Z,15.82
2019-03-29T12:54:45.041Z,15.70
2019-03-29T12:55:44.696Z,15.76
2019-03-29T12:56:44.654Z,15.68
2019-03-29T12:57:44.594Z,15.76
2019-03-29T12:58:44.546Z,15.70
2019-03-29T12:59:44.522Z,15.80
2019-03-29T13:00:44.446Z,15.82
2019-03-29T13:01:44.399Z,15.80
2019-03-29T13:02:44.349Z,15.72
2019-03-29T13:03:44.296Z,15.77
2019-03-29T13:04:46.957Z,15.80
2019-03-29T13:05:44.206Z,15.76